Portada
METAR-TAF:

METAR-TAF

Aeroports :

Kostanay, Kazakhstan

latitud: 53-12-23N, longitud: 063-33-03E, altitud: 182 m

Observació

L'informe es va fer fa 39 minuts, a les 15:00 UTC
Vent 8 kt del Sud-Oest
Temperatura -17°C
Humitat 84%
Pressió 1012 hPa
Visibilitat 10 km o més
sense núvols per sota de 1500 mi sense presència de cumulonimbus.

METAR: UAUU 201500Z 22004MPS CAVOK M17/M19 Q1012 R15/410158 NOSIG RMK QFE742/0990

Hora: 21:39 (15:39 UTC)

Pronòstic

L'informe es va fer fa 1 hora i 35 minuts, a les 14:04 UTC
Pronòstic vàlid del 20 a les 15 UTC al 20 a les 24 UTC
Vent 10 kt del Oest/Sud-Oest
Visibilitat: 6000 m
Núvols disperses a una alçada de 1100 ft
Temporalment
l' 20 a les 15 UTC al 20 a les 20 UTC
Vent 10 kt del Sud-Oest amb ràfegues de 21 kt
Temporalment
l' 20 a les 20 UTC al 20 a les 24 UTC
Visibilitat: 3100 m
Cel ennuvolat a una alçada de 1100 ft
boirina

TAF: UAUU 201404Z 2015/2024 24005MPS 6000 SCT011 TEMPO 2015/2020 23005G11MPS TEMPO 2020/2024 3100 BR BKN011

Observacions i pronòstics meteorològics de més de 4000 aeroports (METAR i TAF).

Les estacions disponibles són els punts grocs i vermells al mapa.

Posi el ratolí al punt desitjat per veure el nom de l'estació.

Feu clic per veure les observacions i els pronòstics meteorològics.

Per canviar el mapa: feu clic els botons verds amb una creu de color negre per apropar; al botó verd amb un guió per allunyar la imatge; o en les fletxes verdes per a mapes adjacents.


METAR-TAF: